Time,TemperatureF,DewpointF,PressureIn,WindDirection,WindDirectionDegrees,WindSpeedMPH,WindSpeedGustMPH,Humidity,HourlyPrecipIn,Conditions,Clouds,dailyrainin,SoftwareType,DateUTC
2013-02-25 00:00:00,18.0,2.0,30.37,ENE,62,0.0,-999.0,49,-99.99,,,0.00,weatherlink.com 1.10,2013-02-25 07:00:00,
2013-02-25 00:15:00,18.8,1.0,30.38,ENE,63,0.0,-999.0,46,-99.99,,,0.00,weatherlink.com 1.10,2013-02-25 07:15:00,
2013-02-25 00:30:00,18.3,2.0,30.37,ENE,63,0.0,-999.0,49,-99.99,,,0.00,weatherlink.com 1.10,2013-02-25 07:30:00,
2013-02-25 00:45:00,17.5,2.0,30.39,ENE,63,0.0,-999.0,51,-99.99,,,0.00,weatherlink.com 1.10,2013-02-25 07:45:00,
2013-02-25 01:00:00,18.3,1.0,30.40,NE,49,0.0,-999.0,46,-99.99,,,0.00,weatherlink.com 1.10,2013-02-25 08:00:00,
2013-02-25 01:15:00,18.4,1.0,30.42,ENE,67,1.0,-999.0,46,-99.99,,,0.00,weatherlink.com 1.10,2013-02-25 08:15:00,
2013-02-25 01:30:00,17.8,2.0,30.43,ENE,67,1.0,-999.0,49,-99.99,,,0.00,weatherlink.com 1.10,2013-02-25 08:30:00,
2013-02-25 01:45:00,17.3,2.0,30.43,ENE,67,0.0,-999.0,50,-99.99,,,0.00,weatherlink.com 1.10,2013-02-25 08:45:00,
2013-02-25 02:00:00,16.4,2.0,30.43,ENE,67,0.0,-999.0,53,-99.99,,,0.00,weatherlink.com 1.10,2013-02-25 09:00:00,
2013-02-25 02:15:00,15.9,2.0,30.40,ENE,67,0.0,-999.0,54,-99.99,,,0.00,weatherlink.com 1.10,2013-02-25 09:15:00,
2013-02-25 02:30:00,15.4,1.0,30.41,ENE,67,1.0,-999.0,54,-99.99,,,0.00,weatherlink.com 1.10,2013-02-25 09:30:00,
2013-02-25 02:45:00,15.9,2.0,30.43,ENE,67,0.0,-999.0,54,-99.99,,,0.00,weatherlink.com 1.10,2013-02-25 09:45:00,
2013-02-25 03:01:00,15.7,1.0,30.41,East,79,0.0,-999.0,53,-99.99,,,0.00,weatherlink.com 1.10,2013-02-25 10:01:00,
2013-02-25 03:15:00,16.2,0.0,30.45,NE,46,0.0,-999.0,50,-99.99,,,0.00,weatherlink.com 1.10,2013-02-25 10:15:00,
2013-02-25 03:30:00,16.7,1.0,30.45,ESE,104,0.0,-999.0,51,-99.99,,,0.00,weatherlink.com 1.10,2013-02-25 10:30:00,
2013-02-25 03:45:00,16.9,1.0,30.46,ENE,77,0.0,-999.0,50,-99.99,,,0.00,weatherlink.com 1.10,2013-02-25 10:45:00,
2013-02-25 04:00:00,16.5,2.0,30.45,ENE,77,0.0,-999.0,53,-99.99,,,0.00,weatherlink.com 1.10,2013-02-25 11:00:00,
2013-02-25 04:15:00,14.9,2.0,30.47,ENE,77,0.0,-999.0,58,-99.99,,,0.00,weatherlink.com 1.10,2013-02-25 11:15:00,
2013-02-25 04:30:00,14.0,3.0,30.49,ENE,77,0.0,-999.0,62,-99.99,,,0.00,weatherlink.com 1.10,2013-02-25 11:30:00,
2013-02-25 04:45:00,13.8,3.0,30.49,ENE,77,0.0,-999.0,61,-99.99,,,0.00,weatherlink.com 1.10,2013-02-25 11:45:00,
2013-02-25 05:00:00,14.3,2.0,30.49,ENE,77,0.0,-999.0,58,-99.99,,,0.00,weatherlink.com 1.10,2013-02-25 12:00:00,
2013-02-25 05:15:00,14.6,1.0,30.51,ENE,77,0.0,-999.0,56,-99.99,,,0.00,weatherlink.com 1.10,2013-02-25 12:15:00,
2013-02-25 05:30:00,14.4,1.0,30.52,ENE,77,0.0,-999.0,56,-99.99,,,0.00,weatherlink.com 1.10,2013-02-25 12:30:00,
2013-02-25 05:45:00,14.9,1.0,30.52,ENE,77,0.0,-999.0,55,-99.99,,,0.00,weatherlink.com 1.10,2013-02-25 12:45:00,
2013-02-25 06:00:00,16.1,1.0,30.53,ENE,77,0.0,-999.0,51,-99.99,,,0.00,weatherlink.com 1.10,2013-02-25 13:00:00,
2013-02-25 06:15:00,16.1,2.0,30.52,ENE,77,0.0,-999.0,54,-99.99,,,0.00,weatherlink.com 1.10,2013-02-25 13:15:00,
2013-02-25 06:30:00,15.9,2.0,30.53,WSW,238,0.0,-999.0,54,-99.99,,,0.00,weatherlink.com 1.10,2013-02-25 13:30:00,
2013-02-25 06:45:00,15.9,1.0,30.54,NNE,14,0.0,-999.0,52,-99.99,,,0.00,weatherlink.com 1.10,2013-02-25 13:45:00,
2013-02-25 07:00:00,14.8,2.0,30.54,NNE,14,0.0,-999.0,57,-99.99,,,0.00,weatherlink.com 1.10,2013-02-25 14:00:00,
2013-02-25 07:15:00,15.7,-1.0,30.54,SW,224,1.0,-999.0,49,-99.99,,,0.00,weatherlink.com 1.10,2013-02-25 14:15:00,
2013-02-25 07:30:00,17.5,0.0,30.54,SW,224,0.0,-999.0,46,-99.99,,,0.00,weatherlink.com 1.10,2013-02-25 14:30:00,
2013-02-25 07:45:00,19.5,1.0,30.52,SW,224,0.0,-999.0,44,-99.99,,,0.00,weatherlink.com 1.10,2013-02-25 14:45:00,
2013-02-25 08:15:00,22.2,-2.0,30.50,ENE,71,2.0,-999.0,35,-99.99,,,0.00,weatherlink.com 1.10,2013-02-25 15:15:00,
2013-02-25 08:30:00,23.8,0.0,30.50,ENE,67,0.0,-999.0,35,-99.99,,,0.00,weatherlink.com 1.10,2013-02-25 15:30:00,
2013-02-25 08:45:00,24.8,0.0,30.48,ESE,107,0.0,-999.0,34,-99.99,,,0.00,weatherlink.com 1.10,2013-02-25 15:45:00,
2013-02-25 09:00:00,26.0,-1.0,30.46,East,87,2.0,-999.0,31,-99.99,,,0.00,weatherlink.com 1.10,2013-02-25 16:00:00,
2013-02-25 09:15:00,27.8,-2.0,30.46,SE,128,2.0,-999.0,27,-99.99,,,0.00,weatherlink.com 1.10,2013-02-25 16:15:00,
2013-02-25 09:30:00,28.8,-1.0,30.44,ESE,119,0.0,-999.0,27,-99.99,,,0.00,weatherlink.com 1.10,2013-02-25 16:30:00,
2013-02-25 09:45:00,30.7,1.0,30.42,ESE,119,0.0,-999.0,28,-99.99,,,0.00,weatherlink.com 1.10,2013-02-25 16:45:00,
2013-02-25 10:00:00,31.5,1.0,30.41,SE,132,0.0,-999.0,27,-99.99,,,0.00,weatherlink.com 1.10,2013-02-25 17:00:00,
2013-02-25 10:15:00,31.5,2.0,30.42,SSE,163,7.0,-999.0,28,-99.99,,,0.00,weatherlink.com 1.10,2013-02-25 17:15:00,
2013-02-25 10:30:00,31.6,4.0,30.42,SE,138,0.0,-999.0,31,-99.99,,,0.00,weatherlink.com 1.10,2013-02-25 17:30:00,
2013-02-25 10:45:00,31.8,4.0,30.41,SSE,153,0.0,-999.0,30,-99.99,,,0.00,weatherlink.com 1.10,2013-02-25 17:45:00,
2013-02-25 11:00:00,32.4,5.0,30.41,SE,139,1.0,-999.0,31,-99.99,,,0.00,weatherlink.com 1.10,2013-02-25 18:00:00,
2013-02-25 11:15:00,32.4,8.0,30.43,South,190,6.0,-999.0,36,-99.99,,,0.01,weatherlink.com 1.10,2013-02-25 18:15:00,
2013-02-25 11:30:00,32.4,7.0,30.42,SW,235,2.0,-999.0,34,-99.99,,,0.01,weatherlink.com 1.10,2013-02-25 18:30:00,
2013-02-25 11:45:00,32.4,11.0,30.43,SE,128,3.0,-999.0,41,-99.99,,,0.01,weatherlink.com 1.10,2013-02-25 18:45:00,
2013-02-25 12:00:00,32.4,9.0,30.42,South,177,7.0,-999.0,38,-99.99,,,0.01,weatherlink.com 1.10,2013-02-25 19:00:00,
2013-02-25 12:15:00,32.5,9.0,30.42,South,189,1.0,-999.0,38,-99.99,,,0.01,weatherlink.com 1.10,2013-02-25 19:15:00,
2013-02-25 12:30:00,33.2,12.0,30.41,SSE,160,8.0,-999.0,41,-99.99,,,0.01,weatherlink.com 1.10,2013-02-25 19:30:00,
2013-02-25 12:45:00,33.2,12.0,30.40,SSW,194,1.0,-999.0,42,-99.99,,,0.01,weatherlink.com 1.10,2013-02-25 19:45:00,
2013-02-25 13:00:00,32.8,12.0,30.40,South,173,2.0,-999.0,42,-99.99,,,0.01,weatherlink.com 1.10,2013-02-25 20:00:00,
2013-02-25 13:15:00,33.2,11.0,30.39,SSW,196,6.0,-999.0,40,-99.99,,,0.01,weatherlink.com 1.10,2013-02-25 20:15:00,
2013-02-25 13:30:00,33.4,10.0,30.39,South,179,0.0,-999.0,38,-99.99,,,0.01,weatherlink.com 1.10,2013-02-25 20:30:00,
2013-02-25 13:45:00,33.2,12.0,30.38,SE,134,2.0,-999.0,41,-99.99,,,0.01,weatherlink.com 1.10,2013-02-25 20:45:00,
2013-02-25 14:00:00,32.5,14.0,30.38,SSW,196,7.0,-999.0,47,-99.99,,,0.01,weatherlink.com 1.10,2013-02-25 21:00:00,
2013-02-25 14:15:00,32.9,15.0,30.39,South,172,5.0,-999.0,49,-99.99,,,0.01,weatherlink.com 1.10,2013-02-25 21:15:00,
2013-02-25 14:45:00,36.0,16.0,30.36,SSE,166,7.0,-999.0,44,-99.99,,,0.01,weatherlink.com 1.10,2013-02-25 21:45:00,
2013-02-25 15:00:00,35.2,15.0,30.34,WSW,241,6.0,-999.0,44,-99.99,,,0.01,weatherlink.com 1.10,2013-02-25 22:00:00,
2013-02-25 15:15:00,37.3,18.0,30.34,SSE,167,5.0,-999.0,46,-99.99,,,0.01,weatherlink.com 1.10,2013-02-25 22:15:00,
2013-02-25 15:45:00,36.9,18.0,30.34,South,176,2.0,-999.0,46,-99.99,,,0.01,weatherlink.com 1.10,2013-02-25 22:45:00,
2013-02-25 16:00:00,35.5,14.0,30.32,South,175,4.0,-999.0,42,-99.99,,,0.01,weatherlink.com 1.10,2013-02-25 23:00:00,
2013-02-25 16:15:00,34.1,14.0,30.37,WSW,258,4.0,-999.0,44,-99.99,,,0.01,weatherlink.com 1.10,2013-02-25 23:15:00,
2013-02-25 16:30:00,31.5,14.0,30.37,WSW,255,2.0,-999.0,48,-99.99,,,0.01,weatherlink.com 1.10,2013-02-25 23:30:00,
2013-02-25 16:45:00,30.6,14.0,30.41,WSW,237,2.0,-999.0,50,-99.99,,,0.01,weatherlink.com 1.10,2013-02-25 23:45:00,
2013-02-25 17:00:00,30.1,14.0,30.41,West,265,2.0,-999.0,51,-99.99,,,0.01,weatherlink.com 1.10,2013-02-26 00:00:00,
2013-02-25 17:15:00,31.5,14.0,30.41,West,262,0.0,-999.0,49,-99.99,,,0.01,weatherlink.com 1.10,2013-02-26 00:15:00,
2013-02-25 17:30:00,31.3,13.0,30.39,West,262,0.0,-999.0,46,-99.99,,,0.01,weatherlink.com 1.10,2013-02-26 00:30:00,
2013-02-25 17:45:00,31.2,12.0,30.39,West,262,2.0,-999.0,46,-99.99,,,0.01,weatherlink.com 1.10,2013-02-26 00:45:00,
2013-02-25 18:00:00,31.0,12.0,30.39,West,262,2.0,-999.0,45,-99.99,,,0.01,weatherlink.com 1.10,2013-02-26 01:00:00,
2013-02-25 18:15:00,30.3,12.0,30.39,West,262,1.0,-999.0,47,-99.99,,,0.01,weatherlink.com 1.10,2013-02-26 01:15:00,
2013-02-25 18:30:00,30.3,12.0,30.39,West,262,1.0,-999.0,46,-99.99,,,0.01,weatherlink.com 1.10,2013-02-26 01:30:00,
2013-02-25 18:45:00,29.7,13.0,30.39,West,262,1.0,-999.0,51,-99.99,,,0.01,weatherlink.com 1.10,2013-02-26 01:45:00,
2013-02-25 19:00:00,29.1,11.0,30.41,West,262,1.0,-999.0,46,-99.99,,,0.01,weatherlink.com 1.10,2013-02-26 02:00:00,
2013-02-25 19:15:00,28.4,12.0,30.38,West,262,0.0,-999.0,51,-99.99,,,0.01,weatherlink.com 1.10,2013-02-26 02:15:00,
2013-02-25 19:30:00,27.5,10.0,30.38,West,262,1.0,-999.0,49,-99.99,,,0.01,weatherlink.com 1.10,2013-02-26 02:30:00,
2013-02-25 19:45:00,26.9,13.0,30.39,West,262,0.0,-999.0,57,-99.99,,,0.01,weatherlink.com 1.10,2013-02-26 02:45:00,
2013-02-25 20:00:00,26.0,13.0,30.40,West,262,0.0,-999.0,57,-99.99,,,0.01,weatherlink.com 1.10,2013-02-26 03:00:00,
2013-02-25 20:15:00,25.8,13.0,30.37,West,262,0.0,-999.0,59,-99.99,,,0.01,weatherlink.com 1.10,2013-02-26 03:15:00,
2013-02-25 20:30:00,25.7,14.0,30.38,West,262,0.0,-999.0,61,-99.99,,,0.01,weatherlink.com 1.10,2013-02-26 03:30:00,
2013-02-25 20:45:00,25.0,14.0,30.37,West,262,0.0,-999.0,62,-99.99,,,0.01,weatherlink.com 1.10,2013-02-26 03:45:00,
2013-02-25 21:00:00,24.8,12.0,30.37,West,262,0.0,-999.0,59,-99.99,,,0.01,weatherlink.com 1.10,2013-02-26 04:00:00,
2013-02-25 21:15:00,24.8,11.0,30.33,West,262,0.0,-999.0,57,-99.99,,,0.01,weatherlink.com 1.10,2013-02-26 04:15:00,
2013-02-25 21:30:00,24.7,14.0,30.33,West,262,0.0,-999.0,64,-99.99,,,0.01,weatherlink.com 1.10,2013-02-26 04:30:00,
2013-02-25 21:45:00,23.8,14.0,30.32,West,262,0.0,-999.0,66,-99.99,,,0.01,weatherlink.com 1.10,2013-02-26 04:45:00,
2013-02-25 22:00:00,23.5,13.0,30.33,West,262,0.0,-999.0,65,-99.99,,,0.01,weatherlink.com 1.10,2013-02-26 05:00:00,
2013-02-25 22:15:00,23.5,14.0,30.31,West,262,0.0,-999.0,67,-99.99,,,0.01,weatherlink.com 1.10,2013-02-26 05:15:00,
2013-02-25 22:30:00,22.5,13.0,30.31,West,262,0.0,-999.0,67,-99.99,,,0.01,weatherlink.com 1.10,2013-02-26 05:30:00,
2013-02-25 22:45:00,22.5,11.0,30.33,West,262,0.0,-999.0,62,-99.99,,,0.01,weatherlink.com 1.10,2013-02-26 05:45:00,
2013-02-25 23:00:00,23.6,13.0,30.34,West,262,0.0,-999.0,63,-99.99,,,0.01,weatherlink.com 1.10,2013-02-26 06:00:00,
2013-02-25 23:15:00,23.0,12.0,30.32,West,262,0.0,-999.0,62,-99.99,,,0.01,weatherlink.com 1.10,2013-02-26 06:15:00,
2013-02-25 23:30:00,22.1,12.0,30.32,West,262,0.0,-999.0,65,-99.99,,,0.01,weatherlink.com 1.10,2013-02-26 06:30:00,
2013-02-25 23:46:00,21.8,11.0,30.32,West,262,0.0,-999.0,64,-99.99,,,0.01,weatherlink.com 1.10,2013-02-26 06:46:00,